Time;durP1;ratioP1;P1;durP2;ratioP2;P2;SDS_P1;SDS_P2;PMS_P1;PMS_P2;Temp;Humidity;BMP_temperature;BMP_pressure;BME280_temperature;BME280_humidity;BME280_pressure;Samples;Min_cycle;Max_cycle;Signal;HPM_P1;HPM_P2
2022/09/06 00:01:12;;;;;;;5.10;2.53;;;19.30;85.70;;;;;;5126754;27;20032;-66
2022/09/06 00:03:38;;;;;;;7.32;3.30;;;19.30;85.90;;;;;;5132028;27;20031;-69
2022/09/06 00:06:12;;;;;;;7.22;3.00;;;19.30;85.80;;;;;;5123222;27;20026;-66
2022/09/06 00:08:38;;;;;;;7.43;3.00;;;19.40;85.60;;;;;;5136139;27;20098;-67
2022/09/06 00:11:05;;;;;;;9.05;2.80;;;19.40;86.00;;;;;;5120971;27;20358;-66
2022/09/06 00:13:31;;;;;;;4.85;2.90;;;19.30;86.50;;;;;;5133442;27;20034;-66
2022/09/06 00:16:06;;;;;;;6.07;3.13;;;19.30;86.20;;;;;;5127430;27;20027;-68
2022/09/06 00:18:31;;;;;;;5.13;2.97;;;19.30;86.10;;;;;;5118117;28;20034;-67
2022/09/06 00:20:57;;;;;;;4.50;2.75;;;19.20;86.60;;;;;;5123591;27;20027;-67
2022/09/06 00:23:23;;;;;;;7.47;3.03;;;19.10;87.30;;;;;;5128264;27;20056;-66
2022/09/06 00:25:48;;;;;;;6.63;2.90;;;19.10;85.80;;;;;;5130259;27;20030;-66
2022/09/06 00:28:15;;;;;;;4.93;2.65;;;19.10;87.30;;;;;;5127355;27;20023;-66
2022/09/06 00:30:40;;;;;;;4.90;2.80;;;19.10;86.10;;;;;;5120015;27;20030;-66
2022/09/06 00:33:06;;;;;;;5.70;3.20;;;19.20;85.30;;;;;;5133936;27;20032;-67
2022/09/06 00:35:32;;;;;;;5.07;2.95;;;19.30;84.90;;;;;;5124403;27;20023;-67
2022/09/06 00:38:00;;;;;;;6.03;2.80;;;19.50;84.60;;;;;;5117101;28;20084;-65
2022/09/06 00:40:28;;;;;;;4.82;2.80;;;19.50;85.00;;;;;;5123500;27;20031;-67
2022/09/06 00:42:55;;;;;;;5.68;2.95;;;19.40;85.10;;;;;;5136486;27;20173;-65
2022/09/06 00:45:22;;;;;;;6.85;3.00;;;19.40;85.10;;;;;;5134364;27;20308;-66
2022/09/06 00:47:51;;;;;;;7.38;2.95;;;19.40;85.60;;;;;;5124890;27;20050;-67
2022/09/06 00:50:17;;;;;;;6.28;3.00;;;19.20;86.40;;;;;;5119472;27;20139;-67
2022/09/06 00:52:47;;;;;;;6.38;2.65;;;19.00;87.00;;;;;;5116960;28;20368;-67
2022/09/06 00:55:13;;;;;;;5.75;2.97;;;18.80;87.60;;;;;;5123177;27;20443;-66
2022/09/06 00:57:39;;;;;;;6.38;3.42;;;18.50;88.90;;;;;;5134079;27;20324;-67
2022/09/06 01:00:07;;;;;;;6.43;3.28;;;18.30;89.60;;;;;;5121830;27;20019;-66
2022/09/06 01:02:33;;;;;;;7.18;3.42;;;18.10;90.50;;;;;;5124067;27;20026;-66
2022/09/06 01:05:00;;;;;;;6.95;3.03;;;17.90;91.20;;;;;;5122461;27;20315;-67
2022/09/06 01:07:44;;;;;;;9.20;3.25;;;17.70;91.50;;;;;;5116308;27;20476;-66
2022/09/06 01:10:29;;;;;;;6.35;2.95;;;17.80;90.00;;;;;;5117087;27;20320;-67
2022/09/06 01:13:09;;;;;;;;;;;18.10;88.70;;;;;;5134090;27;20035;-67
2022/09/06 01:15:38;;;;;;;6.57;2.83;;;18.70;86.60;;;;;;5119945;27;19908;-66
2022/09/06 01:18:37;;;;;;;8.48;3.53;;;19.20;85.60;;;;;;5127764;27;20027;-67
2022/09/06 01:21:20;;;;;;;5.28;3.30;;;19.30;85.20;;;;;;5124558;27;20076;-66
2022/09/06 01:24:27;;;;;;;6.40;3.67;;;19.40;85.20;;;;;;5129399;27;20019;-67
2022/09/06 01:27:08;;;;;;;5.45;3.42;;;19.60;83.90;;;;;;5043269;27;20032;-67
2022/09/06 01:29:39;;;;;;;5.22;3.25;;;19.80;82.80;;;;;;5130021;27;20019;-67
2022/09/06 01:32:34;;;;;;;9.13;3.67;;;20.00;82.40;;;;;;5118112;27;20447;-67
2022/09/06 01:35:13;;;;;;;6.85;3.40;;;20.00;81.90;;;;;;5086134;28;20044;-67
2022/09/06 01:37:39;;;;;;;5.85;2.85;;;20.10;81.90;;;;;;5127337;27;20044;-67
2022/09/06 01:40:05;;;;;;;4.88;2.83;;;20.20;81.90;;;;;;5127373;27;20023;-67
2022/09/06 01:42:33;;;;;;;5.10;3.03;;;20.20;82.00;;;;;;5113958;27;20328;-67
2022/09/06 01:45:00;;;;;;;5.40;3.15;;;20.20;81.70;;;;;;5115484;27;20026;-67
2022/09/06 01:47:39;;;;;;;7.00;3.28;;;20.30;81.70;;;;;;5115879;27;20370;-67
2022/09/06 01:50:19;;;;;;;7.00;3.13;;;20.30;81.80;;;;;;5115172;27;20054;-68
2022/09/06 01:53:00;;;;;;;7.28;3.05;;;20.30;82.00;;;;;;5116185;27;20102;-68
2022/09/06 01:55:38;;;;;;;6.28;2.75;;;20.30;82.30;;;;;;5129227;27;20108;-67
2022/09/06 01:58:22;;;;;;;6.78;3.20;;;20.30;82.60;;;;;;5115787;27;20387;-68
2022/09/06 02:01:13;;;;;;;4.65;2.80;;;20.20;82.90;;;;;;5114590;27;20039;-67
2022/09/06 02:04:09;;;;;;;6.82;3.33;;;20.10;83.90;;;;;;5134228;27;20027;-68
2022/09/06 02:06:42;;;;;;;5.95;3.00;;;19.70;84.80;;;;;;5121956;27;20030;-67
2022/09/06 02:09:15;;;;;;;6.95;3.30;;;19.60;85.80;;;;;;5129403;27;20051;-66
2022/09/06 02:11:50;;;;;;;5.30;3.13;;;19.40;86.50;;;;;;5123843;27;20015;-66
2022/09/06 02:14:26;;;;;;;5.65;3.05;;;19.30;86.90;;;;;;5135082;27;20446;-66
2022/09/06 02:16:55;;;;;;;5.25;2.85;;;19.30;87.20;;;;;;5131506;27;20031;-66
2022/09/06 02:19:38;;;;;;;5.75;2.92;;;19.30;87.30;;;;;;5122967;27;20038;-68
2022/09/06 02:22:08;;;;;;;5.50;3.20;;;19.40;86.90;;;;;;5114997;28;20119;-68
2022/09/06 02:24:36;;;;;;;7.70;3.05;;;19.40;87.30;;;;;;5115345;27;20036;-67
2022/09/06 02:27:02;;;;;;;7.93;3.33;;;19.40;87.40;;;;;;5111524;27;20307;-67
2022/09/06 02:29:28;;;;;;;10.52;3.63;;;19.30;87.60;;;;;;5123702;27;20102;-67
2022/09/06 02:32:05;;;;;;;6.18;3.30;;;19.50;87.60;;;;;;5120788;27;20515;-68
2022/09/06 02:34:31;;;;;;;5.60;2.80;;;19.60;87.30;;;;;;5118790;28;20073;-67
2022/09/06 02:36:57;;;;;;;7.70;3.45;;;19.60;87.80;;;;;;5131469;27;20420;-67
2022/09/06 02:39:23;;;;;;;7.50;3.65;;;19.30;88.60;;;;;;5123598;27;20118;-67
2022/09/06 02:41:49;;;;;;;6.05;2.75;;;19.00;89.70;;;;;;5127247;27;20023;-67
2022/09/06 02:44:15;;;;;;;4.85;2.63;;;19.10;89.60;;;;;;5120557;28;20043;-67
2022/09/06 02:46:40;;;;;;;7.35;2.83;;;19.10;89.60;;;;;;5130573;28;20103;-67
2022/09/06 02:49:06;;;;;;;4.72;2.63;;;19.10;89.80;;;;;;5127230;28;20023;-67
2022/09/06 02:51:37;;;;;;;7.00;3.03;;;19.10;90.20;;;;;;5126624;28;20099;-67
2022/09/06 02:54:06;;;;;;;7.30;3.33;;;19.10;90.40;;;;;;5133912;28;20106;-67
2022/09/06 02:56:32;;;;;;;6.63;3.10;;;19.10;90.40;;;;;;5133862;28;20038;-67
2022/09/06 02:58:59;;;;;;;8.25;3.20;;;19.20;90.40;;;;;;5125819;28;20316;-67
2022/09/06 03:01:25;;;;;;;10.88;3.28;;;19.30;90.10;;;;;;5129410;28;20058;-67
2022/09/06 03:03:51;;;;;;;7.40;3.42;;;19.40;89.90;;;;;;5118494;28;20035;-67
2022/09/06 03:06:17;;;;;;;7.90;2.97;;;19.40;90.20;;;;;;5133531;28;20027;-67
2022/09/06 03:08:42;;;;;;;6.82;2.78;;;19.30;90.40;;;;;;5124155;28;20434;-67
2022/09/06 03:11:10;;;;;;;9.57;3.10;;;19.30;90.30;;;;;;5118896;28;20357;-68
2022/09/06 03:13:36;;;;;;;8.05;3.83;;;19.30;90.70;;;;;;5114278;28;20325;-67
2022/09/06 03:16:04;;;;;;;8.82;3.60;;;19.00;90.20;;;;;;5117296;28;20034;-68
2022/09/06 03:18:31;;;;;;;7.15;3.90;;;18.30;90.20;;;;;;5127771;28;20028;-66
2022/09/06 03:20:57;;;;;;;7.47;3.90;;;18.00;91.40;;;;;;5121452;28;20432;-67
2022/09/06 03:23:27;;;;;;;8.43;3.90;;;17.80;92.00;;;;;;5117021;28;20604;-67
2022/09/06 03:25:53;;;;;;;9.93;3.78;;;17.60;92.40;;;;;;5118646;28;20588;-68
2022/09/06 03:28:20;;;;;;;8.30;3.90;;;17.50;93.10;;;;;;5127540;28;20098;-67
2022/09/06 03:30:47;;;;;;;8.40;3.90;;;17.40;93.40;;;;;;5130666;28;20019;-67
2022/09/06 03:33:13;;;;;;;7.35;4.18;;;17.30;94.00;;;;;;5128629;28;20289;-67
2022/09/06 03:35:40;;;;;;;7.03;4.40;;;17.00;94.50;;;;;;5127695;28;20083;-67
2022/09/06 03:38:06;;;;;;;9.02;4.53;;;16.90;95.00;;;;;;5131790;28;20458;-67
2022/09/06 03:40:32;;;;;;;8.40;4.93;;;16.70;95.50;;;;;;5121017;28;20381;-67
2022/09/06 03:42:57;;;;;;;11.52;4.82;;;16.80;95.90;;;;;;5125326;28;20076;-67
2022/09/06 03:45:23;;;;;;;6.85;4.80;;;16.80;96.00;;;;;;5099798;28;20379;-67
2022/09/06 03:47:49;;;;;;;8.57;4.80;;;16.80;95.70;;;;;;5133233;28;20169;-67
2022/09/06 03:50:14;;;;;;;9.02;4.40;;;16.70;95.70;;;;;;5121630;27;20034;-67
2022/09/06 03:52:40;;;;;;;8.88;4.22;;;16.50;96.00;;;;;;5122346;27;20372;-67
2022/09/06 03:55:06;;;;;;;7.90;4.10;;;16.40;96.40;;;;;;5121645;27;20093;-67
2022/09/06 03:57:32;;;;;;;7.40;4.55;;;16.30;96.70;;;;;;5124824;27;20087;-67
2022/09/06 03:59:58;;;;;;;8.20;4.55;;;16.40;96.70;;;;;;5133692;27;20054;-67
2022/09/06 04:02:23;;;;;;;8.75;4.78;;;16.30;96.80;;;;;;5120586;27;20055;-67
2022/09/06 04:04:54;;;;;;;6.57;4.60;;;16.10;97.00;;;;;;5135884;27;20074;-67
2022/09/06 04:07:21;;;;;;;9.50;4.88;;;16.10;97.00;;;;;;5121365;27;20023;-67
2022/09/06 04:09:47;;;;;;;7.85;4.50;;;16.00;97.10;;;;;;5120083;27;20030;-68
2022/09/06 04:12:12;;;;;;;9.88;4.85;;;15.90;97.20;;;;;;5122467;27;20032;-66
2022/09/06 04:14:38;;;;;;;6.82;4.70;;;15.90;97.20;;;;;;5127377;27;20023;-67
2022/09/06 04:17:04;;;;;;;8.60;5.10;;;15.70;97.10;;;;;;5132721;27;20343;-67
2022/09/06 04:19:29;;;;;;;7.10;4.53;;;15.60;97.10;;;;;;5133973;27;20469;-67
2022/09/06 04:21:55;;;;;;;7.32;4.72;;;15.50;97.00;;;;;;5118353;27;20034;-66
2022/09/06 04:24:21;;;;;;;7.25;5.35;;;15.40;96.80;;;;;;5119090;28;20093;-66
2022/09/06 04:26:46;;;;;;;9.02;5.20;;;15.40;96.70;;;;;;5131398;27;20062;-67
2022/09/06 04:29:12;;;;;;;11.10;5.43;;;15.40;96.60;;;;;;5110253;27;20031;-66
2022/09/06 04:31:38;;;;;;;8.77;5.57;;;15.20;96.40;;;;;;5118103;27;20024;-67
2022/09/06 04:34:03;;;;;;;8.93;5.70;;;15.10;96.20;;;;;;5125508;27;20028;-67
2022/09/06 04:36:29;;;;;;;9.15;5.28;;;15.00;96.00;;;;;;5157999;27;20033;-67
2022/09/06 04:38:58;;;;;;;8.75;5.45;;;15.10;96.10;;;;;;5135764;27;20027;-66
2022/09/06 04:41:23;;;;;;;8.85;5.30;;;15.10;96.30;;;;;;5124886;27;20027;-66
2022/09/06 04:43:49;;;;;;;8.30;5.35;;;15.20;96.40;;;;;;5134915;27;20030;-66
2022/09/06 04:46:24;;;;;;;8.07;5.20;;;15.30;96.70;;;;;;5132992;27;20035;-67
2022/09/06 04:48:51;;;;;;;8.50;4.88;;;15.40;97.00;;;;;;5118231;27;20329;-67
2022/09/06 04:51:17;;;;;;;7.75;5.03;;;15.40;97.10;;;;;;5135643;27;20047;-67
2022/09/06 04:53:44;;;;;;;9.57;5.47;;;15.50;97.20;;;;;;5137922;27;20172;-67
2022/09/06 04:56:15;;;;;;;9.00;5.35;;;15.50;97.20;;;;;;5121262;27;20035;-67
2022/09/06 04:58:43;;;;;;;7.20;5.10;;;15.50;97.30;;;;;;5135793;27;20453;-67
2022/09/06 05:01:08;;;;;;;9.18;5.05;;;15.50;97.40;;;;;;5117358;27;20032;-66
2022/09/06 05:03:34;;;;;;;8.38;5.20;;;15.60;97.40;;;;;;5134326;27;20323;-66
2022/09/06 05:06:12;;;;;;;7.00;4.90;;;15.60;97.30;;;;;;5103448;28;20444;-65
2022/09/06 05:08:39;;;;;;;8.27;4.75;;;15.70;97.30;;;;;;5129279;27;20297;-66
2022/09/06 05:11:06;;;;;;;8.18;5.30;;;15.60;97.20;;;;;;5116040;27;20320;-65
2022/09/06 05:13:32;;;;;;;7.25;4.85;;;15.60;97.20;;;;;;5122804;27;20319;-66
2022/09/06 05:16:02;;;;;;;9.15;6.05;;;15.70;97.30;;;;;;5117467;28;20088;-68
2022/09/06 05:18:28;;;;;;;12.85;5.85;;;15.70;97.10;;;;;;5134010;27;20035;-67
2022/09/06 05:20:54;;;;;;;8.43;5.32;;;15.70;97.10;;;;;;5118365;27;20030;-68
2022/09/06 05:23:20;;;;;;;8.48;5.10;;;15.70;97.10;;;;;;5117163;27;20424;-67
2022/09/06 05:25:46;;;;;;;8.05;4.85;;;15.70;97.20;;;;;;5136464;27;20411;-67
2022/09/06 05:28:12;;;;;;;9.55;5.03;;;15.80;97.30;;;;;;5128312;27;20079;-67
2022/09/06 05:30:38;;;;;;;12.27;5.25;;;16.00;97.80;;;;;;5132133;27;20318;-67
2022/09/06 05:33:04;;;;;;;11.05;4.93;;;16.20;97.70;;;;;;5137285;27;20492;-67
2022/09/06 05:35:30;;;;;;;6.75;4.60;;;16.30;97.70;;;;;;5137966;27;20366;-67
2022/09/06 05:37:58;;;;;;;10.05;5.00;;;16.30;97.70;;;;;;5131793;27;20029;-67
2022/09/06 05:40:24;;;;;;;9.32;4.35;;;16.40;97.80;;;;;;5137190;27;20031;-67
2022/09/06 05:42:49;;;;;;;7.80;4.25;;;16.50;97.80;;;;;;5134160;27;20041;-67
2022/09/06 05:45:15;;;;;;;10.75;4.95;;;16.60;97.70;;;;;;5120224;27;20024;-67
2022/09/06 05:47:41;;;;;;;10.40;4.57;;;16.80;97.60;;;;;;5117212;28;20105;-67
2022/09/06 05:50:07;;;;;;;10.90;4.10;;;17.10;97.40;;;;;;5127330;27;20116;-67
2022/09/06 05:52:34;;;;;;;7.38;3.97;;;17.30;97.30;;;;;;5120799;27;20019;-67
2022/09/06 05:55:00;;;;;;;9.48;4.32;;;17.60;96.60;;;;;;5123447;27;20043;-67
2022/09/06 05:57:26;;;;;;;8.20;4.38;;;17.70;96.40;;;;;;5129210;27;20031;-67
2022/09/06 05:59:52;;;;;;;7.88;4.05;;;17.80;96.30;;;;;;5119223;27;20023;-67
2022/09/06 06:02:19;;;;;;;15.00;4.78;;;17.70;96.40;;;;;;5129075;27;20019;-67
2022/09/06 06:04:48;;;;;;;9.38;4.07;;;17.70;96.70;;;;;;5116911;28;20049;-67
2022/09/06 06:07:14;;;;;;;8.90;4.30;;;17.80;96.50;;;;;;5125776;27;20023;-69
2022/09/06 06:09:41;;;;;;;8.00;4.10;;;18.00;96.10;;;;;;5132132;27;20028;-66
2022/09/06 06:12:07;;;;;;;8.77;4.45;;;18.00;96.10;;;;;;5119850;27;20286;-68
2022/09/06 06:14:33;;;;;;;7.93;4.07;;;18.00;96.00;;;;;;5117622;27;20037;-67
2022/09/06 06:16:59;;;;;;;7.68;4.22;;;18.10;95.90;;;;;;5123987;27;20337;-67
2022/09/06 06:19:25;;;;;;;8.32;4.00;;;18.10;96.00;;;;;;5115843;27;20110;-67
2022/09/06 06:21:52;;;;;;;7.30;4.10;;;18.00;96.10;;;;;;5120231;27;20096;-67
2022/09/06 06:24:21;;;;;;;8.32;3.95;;;18.20;96.30;;;;;;5124196;27;20038;-66
2022/09/06 06:26:47;;;;;;;7.25;3.63;;;18.50;94.90;;;;;;5126028;27;20019;-68
2022/09/06 06:29:13;;;;;;;7.30;4.03;;;18.60;94.10;;;;;;5118518;27;20288;-67
2022/09/06 06:31:39;;;;;;;11.55;4.13;;;18.60;94.20;;;;;;5121385;27;20093;-66
2022/09/06 06:34:05;;;;;;;6.90;3.85;;;18.70;93.90;;;;;;5116206;28;20024;-67
2022/09/06 06:36:33;;;;;;;8.65;3.85;;;19.00;93.50;;;;;;5120987;28;20464;-67
2022/09/06 06:39:00;;;;;;;7.88;4.20;;;19.20;93.40;;;;;;5124090;27;20047;-66
2022/09/06 06:41:28;;;;;;;8.73;4.05;;;19.30;93.00;;;;;;5122078;27;20365;-67
2022/09/06 06:43:59;;;;;;;7.05;3.70;;;19.40;92.60;;;;;;5127997;27;20054;-67
2022/09/06 06:46:26;;;;;;;9.73;4.03;;;19.50;93.10;;;;;;5121596;28;20286;-68
2022/09/06 06:48:54;;;;;;;6.85;3.80;;;19.70;92.30;;;;;;5123410;28;20019;-67
2022/09/06 06:51:21;;;;;;;8.55;4.00;;;19.90;92.00;;;;;;5132164;28;20030;-67
2022/09/06 06:53:47;;;;;;;8.88;4.07;;;20.10;91.60;;;;;;5116561;28;20361;-66
2022/09/06 06:56:15;;;;;;;7.90;3.47;;;20.20;91.40;;;;;;5133628;28;20052;-67
2022/09/06 06:58:41;;;;;;;8.57;3.70;;;20.30;91.10;;;;;;5132755;28;20089;-67
2022/09/06 07:01:08;;;;;;;7.47;4.28;;;20.50;91.60;;;;;;5134097;28;20363;-67
2022/09/06 07:03:35;;;;;;;8.48;3.80;;;20.80;91.50;;;;;;5136567;28;20115;-67
2022/09/06 07:06:01;;;;;;;9.13;3.60;;;21.10;91.00;;;;;;5135496;28;20031;-67
2022/09/06 07:08:27;;;;;;;8.43;3.75;;;21.40;89.90;;;;;;5133004;28;20024;-67
2022/09/06 07:10:52;;;;;;;9.13;3.78;;;21.60;88.70;;;;;;5120802;28;20076;-67
2022/09/06 07:13:18;;;;;;;6.10;3.38;;;21.90;88.80;;;;;;5132555;28;20416;-67
2022/09/06 07:15:44;;;;;;;11.52;3.80;;;22.00;88.00;;;;;;5123467;28;20027;-67
2022/09/06 07:18:09;;;;;;;9.07;3.63;;;22.00;87.90;;;;;;5122955;28;20023;-68
2022/09/06 07:20:35;;;;;;;11.02;3.60;;;22.10;87.40;;;;;;5116375;28;20068;-67
2022/09/06 07:23:04;;;;;;;9.95;4.10;;;22.20;87.30;;;;;;5134762;28;20023;-66
2022/09/06 07:25:31;;;;;;;9.35;3.65;;;22.40;85.90;;;;;;5132661;27;20163;-66
2022/09/06 07:28:00;;;;;;;12.32;3.53;;;22.40;87.30;;;;;;5120244;27;20369;-67
2022/09/06 07:30:26;;;;;;;8.70;3.10;;;22.50;87.30;;;;;;5119840;27;20019;-66
2022/09/06 07:32:51;;;;;;;8.80;3.50;;;22.60;87.10;;;;;;5119876;27;20028;-66
2022/09/06 07:35:19;;;;;;;8.45;3.70;;;22.70;86.50;;;;;;5119426;27;20328;-67
2022/09/06 07:37:54;;;;;;;8.25;3.63;;;22.80;86.80;;;;;;5122940;27;20028;-67
2022/09/06 07:40:20;;;;;;;8.52;4.22;;;22.90;86.50;;;;;;5121158;27;20023;-68
2022/09/06 07:42:46;;;;;;;8.88;3.75;;;23.00;86.40;;;;;;5123498;27;20743;-67
2022/09/06 07:45:11;;;;;;;10.98;4.13;;;23.10;85.00;;;;;;5119306;28;20020;-67
2022/09/06 07:47:37;;;;;;;9.25;3.70;;;23.30;84.70;;;;;;5119898;27;20416;-67
2022/09/06 07:50:03;;;;;;;8.02;4.07;;;23.50;85.20;;;;;;5122148;27;20054;-68
2022/09/06 07:52:29;;;;;;;10.95;3.90;;;23.70;85.20;;;;;;5121419;27;20028;-68
2022/09/06 07:54:55;;;;;;;9.73;3.67;;;23.90;84.70;;;;;;5119378;28;20051;-67
2022/09/06 07:57:22;;;;;;;9.18;3.60;;;24.20;83.00;;;;;;5130344;27;20031;-67
2022/09/06 07:59:47;;;;;;;8.35;3.60;;;24.40;82.60;;;;;;5126604;27;20020;-66
2022/09/06 08:02:14;;;;;;;10.70;3.75;;;24.70;83.70;;;;;;5131714;27;20320;-67
2022/09/06 08:04:40;;;;;;;11.38;3.53;;;25.20;81.30;;;;;;5139778;27;20048;-67
2022/09/06 08:07:06;;;;;;;7.80;3.22;;;26.00;79.70;;;;;;5124272;27;20034;-67
2022/09/06 08:09:32;;;;;;;8.15;3.08;;;26.70;76.80;;;;;;5119281;27;20312;-68
2022/09/06 08:11:57;;;;;;;9.80;3.28;;;27.40;76.10;;;;;;5119016;27;20412;-69
2022/09/06 08:14:23;;;;;;;8.15;2.53;;;28.40;73.40;;;;;;5118060;28;20421;-68
2022/09/06 08:16:49;;;;;;;11.48;3.20;;;28.60;73.30;;;;;;5119404;27;20169;-67
2022/09/06 08:19:17;;;;;;;7.55;3.25;;;29.10;70.60;;;;;;5129624;27;20035;-68
2022/09/06 08:21:42;;;;;;;7.07;2.67;;;29.30;70.10;;;;;;5123783;27;20027;-68
2022/09/06 08:24:11;;;;;;;11.63;3.00;;;29.30;70.10;;;;;;5124415;27;20026;-68
2022/09/06 08:26:39;;;;;;;9.90;3.22;;;29.30;70.10;;;;;;5101724;27;20024;-66
2022/09/06 08:29:07;;;;;;;7.97;2.63;;;29.30;69.30;;;;;;5123848;27;20336;-66
2022/09/06 08:31:34;;;;;;;11.73;3.42;;;28.90;69.30;;;;;;5120627;27;20031;-67
2022/09/06 08:34:03;;;;;;;11.27;3.63;;;29.00;69.50;;;;;;5122608;27;20016;-67
2022/09/06 08:36:30;;;;;;;11.30;3.50;;;29.00;70.10;;;;;;5129057;27;20027;-66
2022/09/06 08:38:56;;;;;;;11.52;3.08;;;29.00;69.40;;;;;;5135121;27;20319;-67
2022/09/06 08:41:42;;;;;;;8.43;2.83;;;29.10;70.40;;;;;;5139428;27;20019;-67
2022/09/06 08:44:14;;;;;;;8.52;2.92;;;29.30;70.50;;;;;;5130684;27;20035;-68
2022/09/06 08:46:46;;;;;;;10.90;2.80;;;29.40;70.00;;;;;;5118507;28;20325;-67
2022/09/06 08:49:12;;;;;;;10.70;3.40;;;29.90;69.00;;;;;;5120149;27;20015;-67
2022/09/06 08:52:01;;;;;;;9.57;2.90;;;30.30;68.20;;;;;;5123698;27;20019;-67
2022/09/06 08:54:37;;;;;;;10.15;2.80;;;30.70;67.10;;;;;;5123829;27;20051;-66
2022/09/06 08:57:24;;;;;;;11.60;3.08;;;31.40;65.70;;;;;;5137813;27;20023;-67
2022/09/06 08:59:53;;;;;;;12.02;3.20;;;32.00;65.50;;;;;;5117818;27;20028;-66
2022/09/06 09:02:22;;;;;;;14.02;3.40;;;31.80;65.40;;;;;;5124864;27;20034;-67
2022/09/06 09:04:50;;;;;;;8.55;2.80;;;31.40;65.60;;;;;;5136257;27;20085;-68
2022/09/06 09:08:00;;;;;;;10.18;3.58;;;31.80;64.40;;;;;;5130362;27;20369;-67
2022/09/06 09:10:48;;;;;;;8.73;2.83;;;31.60;65.50;;;;;;5082666;27;20420;-68
2022/09/06 09:13:26;;;;;;;12.20;3.25;;;31.50;65.70;;;;;;5124776;27;20031;-67
2022/09/06 09:15:52;;;;;;;15.85;3.72;;;30.90;65.90;;;;;;5122616;27;20019;-68
2022/09/06 09:18:24;;;;;;;10.25;3.22;;;30.10;68.60;;;;;;5119146;27;20019;-66
2022/09/06 09:21:09;;;;;;;8.00;3.00;;;29.80;68.40;;;;;;5112202;27;20033;-66
2022/09/06 09:23:39;;;;;;;11.00;3.10;;;29.90;69.80;;;;;;5125888;27;20119;-66
2022/09/06 09:26:11;;;;;;;10.18;3.00;;;29.50;70.30;;;;;;5103684;27;20098;-67
2022/09/06 09:28:36;;;;;;;8.63;3.22;;;28.80;71.90;;;;;;5117002;27;20076;-68
2022/09/06 09:31:02;;;;;;;11.65;3.40;;;28.60;72.70;;;;;;5117253;28;20098;-67
2022/09/06 09:33:38;;;;;;;7.60;3.20;;;28.90;71.30;;;;;;5126831;27;20349;-68
2022/09/06 09:36:13;;;;;;;10.93;2.95;;;28.90;71.50;;;;;;5119467;27;20136;-67
2022/09/06 09:38:44;;;;;;;8.23;2.97;;;29.90;69.20;;;;;;5137623;27;20034;-67
2022/09/06 09:41:27;;;;;;;12.77;3.65;;;30.60;67.40;;;;;;5137745;27;20038;-68
2022/09/06 09:44:04;;;;;;;15.07;3.83;;;30.20;68.20;;;;;;5133925;27;20106;-67
2022/09/06 09:46:33;;;;;;;11.45;3.15;;;29.10;69.70;;;;;;5136711;27;20263;-68
2022/09/06 09:49:06;;;;;;;10.93;2.78;;;28.60;72.00;;;;;;5136637;27;20026;-67
2022/09/06 09:51:38;;;;;;;9.25;3.00;;;28.50;69.70;;;;;;5137620;27;20023;-68
2022/09/06 09:54:28;;;;;;;15.80;3.60;;;28.10;71.80;;;;;;5133459;27;20462;-68
2022/09/06 09:56:55;;;;;;;10.43;3.55;;;27.70;73.00;;;;;;5122783;27;20043;-68
2022/09/06 09:59:36;;;;;;;9.85;3.35;;;27.60;73.80;;;;;;5124898;27;20043;-68
2022/09/06 10:02:34;;;;;;;11.93;3.35;;;27.60;73.90;;;;;;5130483;27;20035;-68
2022/09/06 10:05:12;;;;;;;11.55;3.28;;;27.40;74.40;;;;;;5132605;27;20106;-67
2022/09/06 10:07:42;;;;;;;11.88;3.13;;;27.40;74.90;;;;;;5116057;27;20084;-67
2022/09/06 10:10:36;;;;;;;16.08;3.95;;;27.40;75.10;;;;;;5115538;27;20366;-67
2022/09/06 10:13:25;;;;;;;16.27;3.33;;;27.10;75.20;;;;;;5136845;27;20416;-68
2022/09/06 10:15:52;;;;;;;14.82;3.30;;;27.20;76.20;;;;;;5116367;28;20040;-67
2022/09/06 10:18:39;;;;;;;11.55;4.18;;;27.30;75.80;;;;;;5121398;27;20051;-67
2022/09/06 10:21:22;;;;;;;17.50;3.70;;;27.40;75.50;;;;;;5119449;27;20045;-67
2022/09/06 10:24:09;;;;;;;9.80;3.30;;;27.40;75.30;;;;;;5124029;27;20028;-67
2022/09/06 10:26:58;;;;;;;13.35;3.53;;;27.50;74.30;;;;;;5109104;27;20024;-67
2022/09/06 10:29:46;;;;;;;13.13;3.30;;;27.70;74.90;;;;;;5099308;28;20028;-67
2022/09/06 10:32:53;;;;;;;14.95;3.38;;;27.90;73.80;;;;;;5118891;27;20030;-67
2022/09/06 10:35:30;;;;;;;14.13;3.10;;;27.50;73.20;;;;;;5127713;27;20015;-67
2022/09/06 10:38:18;;;;;;;14.40;3.67;;;26.60;75.40;;;;;;5125153;27;20099;-65
2022/09/06 10:41:10;;;;;;;14.88;3.60;;;26.20;76.60;;;;;;5127780;27;20011;-66
2022/09/06 10:44:18;;;;;;;13.82;4.15;;;25.90;77.70;;;;;;5123761;27;20035;-66
2022/09/06 10:46:49;;;;;;;13.45;3.30;;;25.80;78.50;;;;;;5097382;28;20100;-65
2022/09/06 10:49:18;;;;;;;14.27;3.92;;;25.40;80.10;;;;;;5107035;28;20028;-65
2022/09/06 10:51:59;;;;;;;14.90;3.58;;;25.20;80.80;;;;;;5120781;28;20030;-65
2022/09/06 10:54:25;;;;;;;13.95;3.50;;;25.10;81.20;;;;;;5130748;28;20066;-65
2022/09/06 10:57:15;;;;;;;9.90;3.20;;;24.90;81.50;;;;;;5130924;28;20031;-65
2022/09/06 10:59:52;;;;;;;12.18;3.20;;;24.90;81.80;;;;;;5119230;27;20107;-65
2022/09/06 11:02:48;;;;;;;9.73;2.92;;;25.00;81.00;;;;;;5120313;27;20031;-65
2022/09/06 11:05:24;;;;;;;13.50;3.08;;;25.10;80.10;;;;;;5130433;27;20110;-65
2022/09/06 11:07:59;;;;;;;11.02;3.55;;;25.20;79.40;;;;;;5126738;27;20043;-67
2022/09/06 11:10:32;;;;;;;11.43;3.08;;;25.10;80.70;;;;;;5123837;27;20362;-66
2022/09/06 11:13:15;;;;;;;9.00;3.10;;;25.10;80.70;;;;;;5131257;27;20026;-66
2022/09/06 11:16:00;;;;;;;9.30;3.03;;;25.10;80.20;;;;;;5124711;27;20412;-66
2022/09/06 11:18:36;;;;;;;10.75;2.85;;;25.10;80.70;;;;;;5126650;27;20356;-67
2022/09/06 11:21:21;;;;;;;13.57;3.53;;;25.20;80.60;;;;;;5124584;27;20047;-66
2022/09/06 11:24:02;;;;;;;9.82;3.20;;;25.50;81.50;;;;;;5120497;27;20031;-67
2022/09/06 11:26:34;;;;;;;13.07;3.50;;;25.60;80.40;;;;;;5122776;27;20052;-67
2022/09/06 11:29:04;;;;;;;10.52;2.70;;;25.80;79.60;;;;;;5127652;27;20387;-67
2022/09/06 11:31:33;;;;;;;10.50;3.25;;;26.10;81.10;;;;;;5124868;27;20109;-67
2022/09/06 11:34:25;;;;;;;11.82;3.35;;;26.30;77.50;;;;;;5129053;27;20027;-67
2022/09/06 11:36:55;;;;;;;14.20;3.33;;;26.60;76.90;;;;;;5121581;27;20035;-68
2022/09/06 11:39:31;;;;;;;8.93;2.85;;;26.80;77.30;;;;;;5129540;27;20035;-66
2022/09/06 11:41:59;;;;;;;13.38;2.90;;;27.10;77.20;;;;;;5119238;27;20424;-65
2022/09/06 11:45:16;;;;;;;9.82;3.35;;;27.50;76.50;;;;;;5129527;27;20039;-66
2022/09/06 11:47:43;;;;;;;11.60;3.75;;;27.80;75.30;;;;;;5132760;27;20019;-67
2022/09/06 11:50:27;;;;;;;13.00;3.13;;;27.60;74.50;;;;;;5129899;27;20452;-66
2022/09/06 11:53:06;;;;;;;13.10;3.13;;;27.80;73.80;;;;;;5128356;27;20023;-66
2022/09/06 11:55:44;;;;;;;10.88;2.92;;;28.40;73.80;;;;;;5131080;27;20344;-66
2022/09/06 11:58:17;;;;;;;12.27;2.80;;;29.50;71.50;;;;;;5117849;27;20076;-66
2022/09/06 12:00:45;;;;;;;13.40;2.72;;;29.90;69.60;;;;;;5131749;27;20023;-67
2022/09/06 12:03:49;;;;;;;12.57;3.13;;;30.30;68.90;;;;;;5102942;27;20489;-67
2022/09/06 12:06:32;;;;;;;11.55;3.03;;;30.60;68.50;;;;;;5126502;27;20102;-66
2022/09/06 12:09:22;;;;;;;9.70;2.43;;;29.90;69.50;;;;;;5133339;27;20032;-66
2022/09/06 12:11:52;;;;;;;8.73;2.88;;;30.00;68.50;;;;;;5120339;27;20023;-66
2022/09/06 12:14:48;;;;;;;10.07;2.67;;;30.20;69.30;;;;;;5123822;27;20019;-66
2022/09/06 12:17:13;;;;;;;9.57;3.10;;;30.30;69.20;;;;;;5105482;27;20058;-66
2022/09/06 12:19:56;;;;;;;10.57;2.83;;;29.60;69.80;;;;;;5102588;27;20036;-66
2022/09/06 12:22:34;;;;;;;9.70;3.00;;;29.60;69.90;;;;;;5121610;27;20019;-66
2022/09/06 12:25:19;;;;;;;9.07;2.85;;;29.60;69.30;;;;;;5123694;27;20046;-65
2022/09/06 12:28:05;;;;;;;9.40;2.80;;;29.50;69.80;;;;;;5124739;27;20031;-66
2022/09/06 12:30:43;;;;;;;9.13;3.00;;;29.30;69.60;;;;;;5128325;27;20073;-66
2022/09/06 12:33:23;;;;;;;9.10;2.83;;;29.30;70.40;;;;;;5135981;27;20378;-67
2022/09/06 12:35:49;;;;;;;10.27;2.70;;;29.40;70.10;;;;;;5124952;27;20027;-66
2022/09/06 12:38:22;;;;;;;7.38;2.58;;;29.10;69.90;;;;;;5136711;27;20023;-67
2022/09/06 12:40:53;;;;;;;8.85;3.05;;;29.00;70.30;;;;;;5123461;27;20020;-67
2022/09/06 12:43:19;;;;;;;8.98;2.78;;;29.30;69.20;;;;;;5125354;27;20035;-66
2022/09/06 12:45:49;;;;;;;8.43;2.53;;;29.20;68.30;;;;;;5124512;27;20021;-66
2022/09/06 12:48:29;;;;;;;9.68;2.33;;;29.20;67.60;;;;;;5127515;27;20100;-66
2022/09/06 12:51:08;;;;;;;7.22;2.40;;;29.00;66.10;;;;;;5120899;27;20107;-67
2022/09/06 12:53:34;;;;;;;7.65;2.30;;;28.90;67.40;;;;;;5129483;27;20546;-67
2022/09/06 12:56:11;;;;;;;6.28;2.40;;;29.00;68.00;;;;;;5119568;27;20060;-66
2022/09/06 12:58:38;;;;;;;7.18;2.22;;;29.40;67.60;;;;;;5131057;27;20375;-67
2022/09/06 13:01:21;;;;;;;9.38;3.13;;;29.80;66.90;;;;;;5122149;27;20062;-66
2022/09/06 13:04:01;;;;;;;9.38;2.30;;;29.40;66.60;;;;;;5125706;27;20114;-67
2022/09/06 13:06:28;;;;;;;9.15;2.53;;;29.40;67.50;;;;;;5120786;27;20361;-67